sensor_id;sensor_type;location;lat;lon;timestamp;temperature;humidity
68177;DHT22;56478;50.982;7.032;2023-05-21T00:01:23;14.69;77.80
68177;DHT22;56478;50.982;7.032;2023-05-21T00:03:49;14.64;77.66
68177;DHT22;56478;50.982;7.032;2023-05-21T00:06:15;14.63;78.23
68177;DHT22;56478;50.982;7.032;2023-05-21T00:08:41;14.60;77.95
68177;DHT22;56478;50.982;7.032;2023-05-21T00:11:07;14.63;77.88
68177;DHT22;56478;50.982;7.032;2023-05-21T00:13:32;14.61;78.15
68177;DHT22;56478;50.982;7.032;2023-05-21T00:15:58;14.61;78.30
68177;DHT22;56478;50.982;7.032;2023-05-21T00:18:23;14.63;78.27
68177;DHT22;56478;50.982;7.032;2023-05-21T00:20:51;14.65;78.09
68177;DHT22;56478;50.982;7.032;2023-05-21T00:23:17;14.63;77.92
68177;DHT22;56478;50.982;7.032;2023-05-21T00:25:42;14.65;77.75
68177;DHT22;56478;50.982;7.032;2023-05-21T00:28:08;14.64;78.01
68177;DHT22;56478;50.982;7.032;2023-05-21T00:30:33;14.57;77.98
68177;DHT22;56478;50.982;7.032;2023-05-21T00:32:58;14.60;78.27
68177;DHT22;56478;50.982;7.032;2023-05-21T00:35:26;14.57;78.17
68177;DHT22;56478;50.982;7.032;2023-05-21T00:37:51;14.56;78.26
68177;DHT22;56478;50.982;7.032;2023-05-21T00:40:17;14.56;78.18
68177;DHT22;56478;50.982;7.032;2023-05-21T00:42:43;14.57;78.65
68177;DHT22;56478;50.982;7.032;2023-05-21T00:45:12;14.60;78.51
68177;DHT22;56478;50.982;7.032;2023-05-21T00:47:38;14.61;78.53
68177;DHT22;56478;50.982;7.032;2023-05-21T00:50:05;14.57;78.53
68177;DHT22;56478;50.982;7.032;2023-05-21T00:52:32;14.52;78.50
68177;DHT22;56478;50.982;7.032;2023-05-21T00:55:05;14.50;78.82
68177;DHT22;56478;50.982;7.032;2023-05-21T00:57:31;14.52;78.57
68177;DHT22;56478;50.982;7.032;2023-05-21T00:59:57;14.48;78.87
68177;DHT22;56478;50.982;7.032;2023-05-21T01:02:22;14.45;78.78
68177;DHT22;56478;50.982;7.032;2023-05-21T01:04:48;14.45;79.11
68177;DHT22;56478;50.982;7.032;2023-05-21T01:07:13;14.48;78.95
68177;DHT22;56478;50.982;7.032;2023-05-21T01:09:39;14.48;78.88
68177;DHT22;56478;50.982;7.032;2023-05-21T01:12:05;14.47;79.16
68177;DHT22;56478;50.982;7.032;2023-05-21T01:14:30;14.51;79.17
68177;DHT22;56478;50.982;7.032;2023-05-21T01:16:56;14.52;78.85
68177;DHT22;56478;50.982;7.032;2023-05-21T01:19:23;14.52;78.98
68177;DHT22;56478;50.982;7.032;2023-05-21T01:21:52;14.51;79.05
68177;DHT22;56478;50.982;7.032;2023-05-21T01:24:20;14.52;79.11
68177;DHT22;56478;50.982;7.032;2023-05-21T01:26:46;14.54;79.25
68177;DHT22;56478;50.982;7.032;2023-05-21T01:29:11;14.52;78.81
68177;DHT22;56478;50.982;7.032;2023-05-21T01:34:23;14.54;78.75
68177;DHT22;56478;50.982;7.032;2023-05-21T01:36:53;14.54;79.22
68177;DHT22;56478;50.982;7.032;2023-05-21T01:39:23;14.51;78.85
68177;DHT22;56478;50.982;7.032;2023-05-21T01:41:51;14.48;79.04
68177;DHT22;56478;50.982;7.032;2023-05-21T01:44:17;14.48;79.18
68177;DHT22;56478;50.982;7.032;2023-05-21T01:46:43;14.44;79.32
68177;DHT22;56478;50.982;7.032;2023-05-21T01:49:08;14.45;79.33
68177;DHT22;56478;50.982;7.032;2023-05-21T01:51:34;14.41;79.54
68177;DHT22;56478;50.982;7.032;2023-05-21T01:54:00;14.41;79.64
68177;DHT22;56478;50.982;7.032;2023-05-21T01:56:26;14.38;79.45
68177;DHT22;56478;50.982;7.032;2023-05-21T01:58:53;14.40;79.49
68177;DHT22;56478;50.982;7.032;2023-05-21T02:01:21;14.37;79.52
68177;DHT22;56478;50.982;7.032;2023-05-21T02:03:46;14.38;79.55
68177;DHT22;56478;50.982;7.032;2023-05-21T02:06:11;14.34;79.92
68177;DHT22;56478;50.982;7.032;2023-05-21T02:08:37;14.33;79.66
68177;DHT22;56478;50.982;7.032;2023-05-21T02:11:02;14.36;79.90
68177;DHT22;56478;50.982;7.032;2023-05-21T02:13:28;14.38;79.93
68177;DHT22;56478;50.982;7.032;2023-05-21T02:15:53;14.36;79.75
68177;DHT22;56478;50.982;7.032;2023-05-21T02:18:19;14.33;79.94
68177;DHT22;56478;50.982;7.032;2023-05-21T02:20:45;14.34;80.01
68177;DHT22;56478;50.982;7.032;2023-05-21T02:23:10;14.33;79.84
68177;DHT22;56478;50.982;7.032;2023-05-21T02:25:36;14.36;79.95
68177;DHT22;56478;50.982;7.032;2023-05-21T02:28:01;14.40;79.63
68177;DHT22;56478;50.982;7.032;2023-05-21T02:30:27;14.38;79.70
68177;DHT22;56478;50.982;7.032;2023-05-21T02:32:52;14.40;79.79
68177;DHT22;56478;50.982;7.032;2023-05-21T02:35:18;14.44;79.92
68177;DHT22;56478;50.982;7.032;2023-05-21T02:37:44;14.44;79.97
68177;DHT22;56478;50.982;7.032;2023-05-21T02:40:09;14.45;79.66
68177;DHT22;56478;50.982;7.032;2023-05-21T02:42:35;14.45;79.53
68177;DHT22;56478;50.982;7.032;2023-05-21T02:45:03;14.45;79.67
68177;DHT22;56478;50.982;7.032;2023-05-21T02:47:29;14.47;79.77
68177;DHT22;56478;50.982;7.032;2023-05-21T02:49:54;14.45;79.83
68177;DHT22;56478;50.982;7.032;2023-05-21T02:52:19;14.47;79.40
68177;DHT22;56478;50.982;7.032;2023-05-21T02:54:48;14.51;79.27
68177;DHT22;56478;50.982;7.032;2023-05-21T02:57:13;14.41;79.56
68177;DHT22;56478;50.982;7.032;2023-05-21T02:59:39;14.41;79.75
68177;DHT22;56478;50.982;7.032;2023-05-21T03:02:04;14.43;79.54
68177;DHT22;56478;50.982;7.032;2023-05-21T03:04:30;14.43;79.73
68177;DHT22;56478;50.982;7.032;2023-05-21T03:06:58;14.43;79.76
68177;DHT22;56478;50.982;7.032;2023-05-21T03:09:26;14.43;79.43
68177;DHT22;56478;50.982;7.032;2023-05-21T03:11:51;14.44;79.42
68177;DHT22;56478;50.982;7.032;2023-05-21T03:14:17;14.40;79.72
68177;DHT22;56478;50.982;7.032;2023-05-21T03:16:42;14.36;80.05
68177;DHT22;56478;50.982;7.032;2023-05-21T03:19:09;14.33;79.85
68177;DHT22;56478;50.982;7.032;2023-05-21T03:21:35;14.34;79.95
68177;DHT22;56478;50.982;7.032;2023-05-21T03:24:01;14.30;80.05
68177;DHT22;56478;50.982;7.032;2023-05-21T03:26:27;14.26;80.26
68177;DHT22;56478;50.982;7.032;2023-05-21T03:28:53;14.23;80.43
68177;DHT22;56478;50.982;7.032;2023-05-21T03:31:19;14.23;80.66
68177;DHT22;56478;50.982;7.032;2023-05-21T03:33:44;14.17;80.80
68177;DHT22;56478;50.982;7.032;2023-05-21T03:36:10;14.19;80.72
68177;DHT22;56478;50.982;7.032;2023-05-21T03:38:35;14.17;80.97
68177;DHT22;56478;50.982;7.032;2023-05-21T03:41:01;14.16;81.01
68177;DHT22;56478;50.982;7.032;2023-05-21T03:43:26;14.16;80.94
68177;DHT22;56478;50.982;7.032;2023-05-21T03:45:53;14.19;80.71
68177;DHT22;56478;50.982;7.032;2023-05-21T03:48:18;14.17;80.78
68177;DHT22;56478;50.982;7.032;2023-05-21T03:50:43;14.17;80.58
68177;DHT22;56478;50.982;7.032;2023-05-21T03:53:09;14.22;80.53
68177;DHT22;56478;50.982;7.032;2023-05-21T03:55:35;14.25;80.36
68177;DHT22;56478;50.982;7.032;2023-05-21T03:58:00;14.27;80.13
68177;DHT22;56478;50.982;7.032;2023-05-21T04:00:25;14.25;80.31
68177;DHT22;56478;50.982;7.032;2023-05-21T04:02:51;14.23;80.55
68177;DHT22;56478;50.982;7.032;2023-05-21T04:05:16;14.26;80.75
68177;DHT22;56478;50.982;7.032;2023-05-21T04:07:42;14.22;80.90
68177;DHT22;56478;50.982;7.032;2023-05-21T04:10:10;14.26;80.75
68177;DHT22;56478;50.982;7.032;2023-05-21T04:12:36;14.30;80.67
68177;DHT22;56478;50.982;7.032;2023-05-21T04:15:01;14.27;80.78
68177;DHT22;56478;50.982;7.032;2023-05-21T04:17:27;14.26;80.91
68177;DHT22;56478;50.982;7.032;2023-05-21T04:19:52;14.32;80.57
68177;DHT22;56478;50.982;7.032;2023-05-21T04:22:18;14.30;80.83
68177;DHT22;56478;50.982;7.032;2023-05-21T04:24:43;14.33;81.03
68177;DHT22;56478;50.982;7.032;2023-05-21T04:27:10;14.36;80.83
68177;DHT22;56478;50.982;7.032;2023-05-21T04:29:36;14.36;80.45
68177;DHT22;56478;50.982;7.032;2023-05-21T04:32:06;14.37;80.84
68177;DHT22;56478;50.982;7.032;2023-05-21T04:34:32;14.38;80.61
68177;DHT22;56478;50.982;7.032;2023-05-21T04:36:58;14.44;80.64
68177;DHT22;56478;50.982;7.032;2023-05-21T04:39:23;14.45;80.66
68177;DHT22;56478;50.982;7.032;2023-05-21T04:41:49;14.47;80.04
68177;DHT22;56478;50.982;7.032;2023-05-21T04:44:14;14.50;80.34
68177;DHT22;56478;50.982;7.032;2023-05-21T04:46:40;14.52;80.59
68177;DHT22;56478;50.982;7.032;2023-05-21T04:49:05;14.54;80.56
68177;DHT22;56478;50.982;7.032;2023-05-21T04:51:30;14.54;79.98
68177;DHT22;56478;50.982;7.032;2023-05-21T04:53:56;14.60;80.05
68177;DHT22;56478;50.982;7.032;2023-05-21T04:56:22;14.61;79.80
68177;DHT22;56478;50.982;7.032;2023-05-21T04:58:50;14.67;79.81
68177;DHT22;56478;50.982;7.032;2023-05-21T05:01:15;14.65;79.22
68177;DHT22;56478;50.982;7.032;2023-05-21T05:03:41;14.71;79.25
68177;DHT22;56478;50.982;7.032;2023-05-21T05:06:06;14.74;79.05
68177;DHT22;56478;50.982;7.032;2023-05-21T05:08:32;14.79;79.51
68177;DHT22;56478;50.982;7.032;2023-05-21T05:10:58;14.79;79.56
68177;DHT22;56478;50.982;7.032;2023-05-21T05:13:23;14.78;79.96
68177;DHT22;56478;50.982;7.032;2023-05-21T05:15:48;14.79;79.18
68177;DHT22;56478;50.982;7.032;2023-05-21T05:18:14;14.88;78.81
68177;DHT22;56478;50.982;7.032;2023-05-21T05:20:40;14.96;79.56
68177;DHT22;56478;50.982;7.032;2023-05-21T05:23:05;15.00;78.75
68177;DHT22;56478;50.982;7.032;2023-05-21T05:25:31;15.07;78.26
68177;DHT22;56478;50.982;7.032;2023-05-21T05:27:56;15.13;79.28
68177;DHT22;56478;50.982;7.032;2023-05-21T05:30:22;15.18;78.99
68177;DHT22;56478;50.982;7.032;2023-05-21T05:32:47;15.23;78.68
68177;DHT22;56478;50.982;7.032;2023-05-21T05:35:12;15.23;78.28
68177;DHT22;56478;50.982;7.032;2023-05-21T05:37:38;15.23;79.28
68177;DHT22;56478;50.982;7.032;2023-05-21T05:40:03;15.29;78.51
68177;DHT22;56478;50.982;7.032;2023-05-21T05:42:30;15.34;77.38
68177;DHT22;56478;50.982;7.032;2023-05-21T05:44:56;15.36;78.26
68177;DHT22;56478;50.982;7.032;2023-05-21T05:47:21;15.41;77.25
68177;DHT22;56478;50.982;7.032;2023-05-21T05:49:47;15.47;78.46
68177;DHT22;56478;50.982;7.032;2023-05-21T05:52:12;15.51;78.91
68177;DHT22;56478;50.982;7.032;2023-05-21T05:54:38;15.51;77.90
68177;DHT22;56478;50.982;7.032;2023-05-21T05:57:04;15.54;78.25
68177;DHT22;56478;50.982;7.032;2023-05-21T05:59:29;15.64;77.59
68177;DHT22;56478;50.982;7.032;2023-05-21T06:01:55;15.72;77.82
68177;DHT22;56478;50.982;7.032;2023-05-21T06:04:20;15.83;77.25
68177;DHT22;56478;50.982;7.032;2023-05-21T06:06:46;15.99;76.36
68177;DHT22;56478;50.982;7.032;2023-05-21T06:09:12;16.12;77.41
68177;DHT22;56478;50.982;7.032;2023-05-21T06:11:37;16.23;75.81
68177;DHT22;56478;50.982;7.032;2023-05-21T06:14:03;16.27;75.34
68177;DHT22;56478;50.982;7.032;2023-05-21T06:16:28;16.33;75.17
68177;DHT22;56478;50.982;7.032;2023-05-21T06:18:56;16.35;75.74
68177;DHT22;56478;50.982;7.032;2023-05-21T06:21:21;16.44;75.78
68177;DHT22;56478;50.982;7.032;2023-05-21T06:23:47;16.55;74.24
68177;DHT22;56478;50.982;7.032;2023-05-21T06:26:12;16.60;75.21
68177;DHT22;56478;50.982;7.032;2023-05-21T06:28:37;16.61;74.53
68177;DHT22;56478;50.982;7.032;2023-05-21T06:31:03;16.65;74.56
68177;DHT22;56478;50.982;7.032;2023-05-21T06:33:28;16.72;73.79
68177;DHT22;56478;50.982;7.032;2023-05-21T06:35:54;16.83;73.79
68177;DHT22;56478;50.982;7.032;2023-05-21T06:38:19;17.09;72.32
68177;DHT22;56478;50.982;7.032;2023-05-21T06:40:44;17.19;74.27
68177;DHT22;56478;50.982;7.032;2023-05-21T06:43:12;17.27;72.30
68177;DHT22;56478;50.982;7.032;2023-05-21T06:45:37;17.45;71.94
68177;DHT22;56478;50.982;7.032;2023-05-21T06:48:03;17.82;70.70
68177;DHT22;56478;50.982;7.032;2023-05-21T06:50:28;18.51;68.42
68177;DHT22;56478;50.982;7.032;2023-05-21T06:52:54;19.20;65.92
68177;DHT22;56478;50.982;7.032;2023-05-21T06:55:19;19.96;63.43
68177;DHT22;56478;50.982;7.032;2023-05-21T06:57:45;20.63;60.59
68177;DHT22;56478;50.982;7.032;2023-05-21T07:00:11;21.58;58.32
68177;DHT22;56478;50.982;7.032;2023-05-21T07:02:36;22.31;55.73
68177;DHT22;56478;50.982;7.032;2023-05-21T07:05:01;22.28;56.52
68177;DHT22;56478;50.982;7.032;2023-05-21T07:07:27;22.45;55.44
68177;DHT22;56478;50.982;7.032;2023-05-21T07:09:52;23.19;53.61
68177;DHT22;56478;50.982;7.032;2023-05-21T07:12:18;23.06;53.70
68177;DHT22;56478;50.982;7.032;2023-05-21T07:14:43;22.72;55.39
68177;DHT22;56478;50.982;7.032;2023-05-21T07:17:09;22.98;54.10
68177;DHT22;56478;50.982;7.032;2023-05-21T07:19:34;23.26;52.32
68177;DHT22;56478;50.982;7.032;2023-05-21T07:21:59;23.67;51.69
68177;DHT22;56478;50.982;7.032;2023-05-21T07:24:25;24.76;48.52
68177;DHT22;56478;50.982;7.032;2023-05-21T07:26:51;23.51;51.28
68177;DHT22;56478;50.982;7.032;2023-05-21T07:29:17;24.42;50.07
68177;DHT22;56478;50.982;7.032;2023-05-21T07:31:42;24.72;48.88
68177;DHT22;56478;50.982;7.032;2023-05-21T07:34:08;24.74;49.18
68177;DHT22;56478;50.982;7.032;2023-05-21T07:36:33;25.84;45.83
68177;DHT22;56478;50.982;7.032;2023-05-21T07:38:58;25.58;46.93
68177;DHT22;56478;50.982;7.032;2023-05-21T07:41:24;25.65;47.17
68177;DHT22;56478;50.982;7.032;2023-05-21T07:43:50;25.54;47.63
68177;DHT22;56478;50.982;7.032;2023-05-21T07:46:15;25.90;46.18
68177;DHT22;56478;50.982;7.032;2023-05-21T07:48:41;25.31;47.40
68177;DHT22;56478;50.982;7.032;2023-05-21T07:51:08;24.80;48.44
68177;DHT22;56478;50.982;7.032;2023-05-21T07:53:33;24.55;48.60
68177;DHT22;56478;50.982;7.032;2023-05-21T07:55:59;23.76;51.08
68177;DHT22;56478;50.982;7.032;2023-05-21T07:58:24;23.29;52.31
68177;DHT22;56478;50.982;7.032;2023-05-21T08:00:50;23.28;52.60
68177;DHT22;56478;50.982;7.032;2023-05-21T08:03:15;22.66;54.86
68177;DHT22;56478;50.982;7.032;2023-05-21T08:05:44;22.49;55.37
68177;DHT22;56478;50.982;7.032;2023-05-21T08:08:16;22.28;56.15
68177;DHT22;56478;50.982;7.032;2023-05-21T08:10:42;22.44;56.53
68177;DHT22;56478;50.982;7.032;2023-05-21T08:13:07;22.69;54.87
68177;DHT22;56478;50.982;7.032;2023-05-21T08:15:33;23.38;53.49
68177;DHT22;56478;50.982;7.032;2023-05-21T08:17:58;24.20;50.87
68177;DHT22;56478;50.982;7.032;2023-05-21T08:20:24;23.70;52.03
68177;DHT22;56478;50.982;7.032;2023-05-21T08:22:50;23.41;52.95
68177;DHT22;56478;50.982;7.032;2023-05-21T08:25:15;23.59;52.21
68177;DHT22;56478;50.982;7.032;2023-05-21T08:27:41;23.84;52.24
68177;DHT22;56478;50.982;7.032;2023-05-21T08:30:07;24.83;48.91
68177;DHT22;56478;50.982;7.032;2023-05-21T08:32:34;25.21;48.32
68177;DHT22;56478;50.982;7.032;2023-05-21T08:34:59;26.18;47.76
68177;DHT22;56478;50.982;7.032;2023-05-21T08:37:25;27.45;44.18
68177;DHT22;56478;50.982;7.032;2023-05-21T08:39:50;29.19;40.35
68177;DHT22;56478;50.982;7.032;2023-05-21T08:45:06;29.85;39.19
68177;DHT22;56478;50.982;7.032;2023-05-21T08:47:33;31.25;36.66
68177;DHT22;56478;50.982;7.032;2023-05-21T08:49:59;30.59;37.81
68177;DHT22;56478;50.982;7.032;2023-05-21T08:52:25;30.49;38.50
68177;DHT22;56478;50.982;7.032;2023-05-21T08:54:51;29.85;39.40
68177;DHT22;56478;50.982;7.032;2023-05-21T08:57:17;29.84;40.66
68177;DHT22;56478;50.982;7.032;2023-05-21T08:59:44;30.18;39.07
68177;DHT22;56478;50.982;7.032;2023-05-21T09:02:12;30.21;38.99
68177;DHT22;56478;50.982;7.032;2023-05-21T09:04:41;30.08;39.34
68177;DHT22;56478;50.982;7.032;2023-05-21T09:07:07;30.19;38.39
68177;DHT22;56478;50.982;7.032;2023-05-21T09:09:37;30.19;38.90
68177;DHT22;56478;50.982;7.032;2023-05-21T09:12:04;30.35;38.75
68177;DHT22;56478;50.982;7.032;2023-05-21T09:14:29;29.92;39.45
68177;DHT22;56478;50.982;7.032;2023-05-21T09:16:55;30.02;39.76
68177;DHT22;56478;50.982;7.032;2023-05-21T09:19:20;29.85;40.22
68177;DHT22;56478;50.982;7.032;2023-05-21T09:21:51;28.97;41.55
68177;DHT22;56478;50.982;7.032;2023-05-21T09:24:17;28.57;41.70
68177;DHT22;56478;50.982;7.032;2023-05-21T09:26:45;29.94;40.13
68177;DHT22;56478;50.982;7.032;2023-05-21T09:29:11;29.80;40.05
68177;DHT22;56478;50.982;7.032;2023-05-21T09:31:40;29.82;40.20
68177;DHT22;56478;50.982;7.032;2023-05-21T09:34:06;30.11;40.11
68177;DHT22;56478;50.982;7.032;2023-05-21T09:36:32;31.11;38.12
68177;DHT22;56478;50.982;7.032;2023-05-21T09:39:01;32.18;36.13
68177;DHT22;56478;50.982;7.032;2023-05-21T09:41:31;31.89;37.36
68177;DHT22;56478;50.982;7.032;2023-05-21T09:43:58;31.91;37.00
68177;DHT22;56478;50.982;7.032;2023-05-21T09:46:24;33.35;34.00
68177;DHT22;56478;50.982;7.032;2023-05-21T09:48:50;33.33;34.34
68177;DHT22;56478;50.982;7.032;2023-05-21T09:51:16;33.82;33.54
68177;DHT22;56478;50.982;7.032;2023-05-21T09:53:57;33.94;33.60
68177;DHT22;56478;50.982;7.032;2023-05-21T09:56:23;33.94;33.36
68177;DHT22;56478;50.982;7.032;2023-05-21T09:58:52;33.69;34.13
68177;DHT22;56478;50.982;7.032;2023-05-21T10:01:19;33.53;34.86
68177;DHT22;56478;50.982;7.032;2023-05-21T10:03:46;33.90;33.86
68177;DHT22;56478;50.982;7.032;2023-05-21T10:06:13;34.66;33.12
68177;DHT22;56478;50.982;7.032;2023-05-21T10:08:39;35.05;33.18
68177;DHT22;56478;50.982;7.032;2023-05-21T10:11:07;33.54;34.86
68177;DHT22;56478;50.982;7.032;2023-05-21T10:13:33;33.42;34.45
68177;DHT22;56478;50.982;7.032;2023-05-21T10:16:02;32.52;36.01
68177;DHT22;56478;50.982;7.032;2023-05-21T10:18:28;32.11;36.43
68177;DHT22;56478;50.982;7.032;2023-05-21T10:20:54;31.84;37.69
68177;DHT22;56478;50.982;7.032;2023-05-21T10:23:19;32.47;36.85
68177;DHT22;56478;50.982;7.032;2023-05-21T10:25:45;33.02;36.35
68177;DHT22;56478;50.982;7.032;2023-05-21T10:28:10;32.50;37.30
68177;DHT22;56478;50.982;7.032;2023-05-21T10:30:35;32.63;36.32
68177;DHT22;56478;50.982;7.032;2023-05-21T10:33:05;31.97;38.19
68177;DHT22;56478;50.982;7.032;2023-05-21T10:35:31;32.16;39.79
68177;DHT22;56478;50.982;7.032;2023-05-21T10:37:57;32.35;36.70
68177;DHT22;56478;50.982;7.032;2023-05-21T10:40:23;32.05;38.03
68177;DHT22;56478;50.982;7.032;2023-05-21T10:45:42;31.85;38.20
68177;DHT22;56478;50.982;7.032;2023-05-21T10:53:20;32.04;38.43
68177;DHT22;56478;50.982;7.032;2023-05-21T11:01:05;31.37;39.71
68177;DHT22;56478;50.982;7.032;2023-05-21T11:03:31;31.30;38.07
68177;DHT22;56478;50.982;7.032;2023-05-21T11:05:57;30.99;39.74
68177;DHT22;56478;50.982;7.032;2023-05-21T11:08:25;30.74;41.30
68177;DHT22;56478;50.982;7.032;2023-05-21T11:10:54;30.15;41.35
68177;DHT22;56478;50.982;7.032;2023-05-21T11:13:22;30.08;41.48
68177;DHT22;56478;50.982;7.032;2023-05-21T11:16:12;30.02;41.55
68177;DHT22;56478;50.982;7.032;2023-05-21T11:21:05;29.84;41.55
68177;DHT22;56478;50.982;7.032;2023-05-21T11:26:19;30.21;42.26
68177;DHT22;56478;50.982;7.032;2023-05-21T11:28:45;30.01;42.58
68177;DHT22;56478;50.982;7.032;2023-05-21T11:31:21;29.82;43.58
68177;DHT22;56478;50.982;7.032;2023-05-21T11:33:46;29.74;42.94
68177;DHT22;56478;50.982;7.032;2023-05-21T11:36:11;29.29;43.61
68177;DHT22;56478;50.982;7.032;2023-05-21T11:38:37;29.52;42.95
68177;DHT22;56478;50.982;7.032;2023-05-21T11:41:03;29.14;45.29
68177;DHT22;56478;50.982;7.032;2023-05-21T11:43:28;28.63;45.00
68177;DHT22;56478;50.982;7.032;2023-05-21T11:45:53;29.11;44.77
68177;DHT22;56478;50.982;7.032;2023-05-21T11:48:25;28.97;43.75
68177;DHT22;56478;50.982;7.032;2023-05-21T11:50:51;29.07;43.93
68177;DHT22;56478;50.982;7.032;2023-05-21T11:53:16;29.04;43.97
68177;DHT22;56478;50.982;7.032;2023-05-21T11:55:42;28.91;44.56
68177;DHT22;56478;50.982;7.032;2023-05-21T11:58:11;28.90;46.62
68177;DHT22;56478;50.982;7.032;2023-05-21T12:00:37;28.83;46.57
68177;DHT22;56478;50.982;7.032;2023-05-21T12:03:04;28.63;46.35
68177;DHT22;56478;50.982;7.032;2023-05-21T12:05:42;28.59;47.53
68177;DHT22;56478;50.982;7.032;2023-05-21T12:08:07;28.60;47.15
68177;DHT22;56478;50.982;7.032;2023-05-21T12:10:36;28.87;45.54
68177;DHT22;56478;50.982;7.032;2023-05-21T12:13:03;29.04;44.98
68177;DHT22;56478;50.982;7.032;2023-05-21T12:15:29;29.12;44.40
68177;DHT22;56478;50.982;7.032;2023-05-21T12:17:55;29.42;43.34
68177;DHT22;56478;50.982;7.032;2023-05-21T12:20:20;29.11;45.60
68177;DHT22;56478;50.982;7.032;2023-05-21T12:22:49;29.36;43.87
68177;DHT22;56478;50.982;7.032;2023-05-21T12:25:16;29.46;43.39
68177;DHT22;56478;50.982;7.032;2023-05-21T12:27:43;29.29;44.00
68177;DHT22;56478;50.982;7.032;2023-05-21T12:30:10;29.32;44.56
68177;DHT22;56478;50.982;7.032;2023-05-21T12:32:39;29.40;43.08
68177;DHT22;56478;50.982;7.032;2023-05-21T12:35:07;29.37;42.88
68177;DHT22;56478;50.982;7.032;2023-05-21T12:37:33;29.35;44.84
68177;DHT22;56478;50.982;7.032;2023-05-21T12:40:00;29.46;43.29
68177;DHT22;56478;50.982;7.032;2023-05-21T12:42:29;29.42;43.56
68177;DHT22;56478;50.982;7.032;2023-05-21T12:44:55;29.37;44.58
68177;DHT22;56478;50.982;7.032;2023-05-21T12:47:24;29.29;45.34
68177;DHT22;56478;50.982;7.032;2023-05-21T12:49:52;29.29;44.24
68177;DHT22;56478;50.982;7.032;2023-05-21T12:52:19;29.23;44.24
68177;DHT22;56478;50.982;7.032;2023-05-21T12:54:47;28.97;44.22
68177;DHT22;56478;50.982;7.032;2023-05-21T12:57:20;28.95;45.42
68177;DHT22;56478;50.982;7.032;2023-05-21T12:59:48;28.94;45.50
68177;DHT22;56478;50.982;7.032;2023-05-21T13:02:17;29.04;45.56
68177;DHT22;56478;50.982;7.032;2023-05-21T13:04:43;28.91;46.13
68177;DHT22;56478;50.982;7.032;2023-05-21T13:07:09;29.12;44.38
68177;DHT22;56478;50.982;7.032;2023-05-21T13:09:34;29.09;44.61
68177;DHT22;56478;50.982;7.032;2023-05-21T13:12:00;29.09;45.32
68177;DHT22;56478;50.982;7.032;2023-05-21T13:14:25;29.02;45.00
68177;DHT22;56478;50.982;7.032;2023-05-21T13:16:50;29.14;45.12
68177;DHT22;56478;50.982;7.032;2023-05-21T13:19:16;29.23;43.96
68177;DHT22;56478;50.982;7.032;2023-05-21T13:21:42;28.71;44.50
68177;DHT22;56478;50.982;7.032;2023-05-21T13:24:07;28.08;49.41
68177;DHT22;56478;50.982;7.032;2023-05-21T13:26:32;28.06;48.97
68177;DHT22;56478;50.982;7.032;2023-05-21T13:28:58;27.88;49.85
68177;DHT22;56478;50.982;7.032;2023-05-21T13:31:23;27.91;49.49
68177;DHT22;56478;50.982;7.032;2023-05-21T13:33:49;28.02;48.71
68177;DHT22;56478;50.982;7.032;2023-05-21T13:36:14;28.26;48.10
68177;DHT22;56478;50.982;7.032;2023-05-21T13:38:39;28.45;46.06
68177;DHT22;56478;50.982;7.032;2023-05-21T13:41:05;28.50;46.43
68177;DHT22;56478;50.982;7.032;2023-05-21T13:43:30;28.55;46.70
68177;DHT22;56478;50.982;7.032;2023-05-21T13:45:56;28.74;46.85
68177;DHT22;56478;50.982;7.032;2023-05-21T13:48:21;28.63;49.51
68177;DHT22;56478;50.982;7.032;2023-05-21T13:50:46;28.56;46.71
68177;DHT22;56478;50.982;7.032;2023-05-21T13:53:12;28.61;46.66
68177;DHT22;56478;50.982;7.032;2023-05-21T13:55:37;28.64;47.35
68177;DHT22;56478;50.982;7.032;2023-05-21T13:58:03;28.64;46.74
68177;DHT22;56478;50.982;7.032;2023-05-21T14:00:28;28.74;46.58
68177;DHT22;56478;50.982;7.032;2023-05-21T14:02:54;28.53;47.43
68177;DHT22;56478;50.982;7.032;2023-05-21T14:05:19;28.70;47.44
68177;DHT22;56478;50.982;7.032;2023-05-21T14:07:45;28.64;46.99
68177;DHT22;56478;50.982;7.032;2023-05-21T14:10:12;28.59;47.60
68177;DHT22;56478;50.982;7.032;2023-05-21T14:12:38;28.68;46.60
68177;DHT22;56478;50.982;7.032;2023-05-21T14:15:04;28.67;47.11
68177;DHT22;56478;50.982;7.032;2023-05-21T14:17:30;28.45;47.46
68177;DHT22;56478;50.982;7.032;2023-05-21T14:19:56;28.53;46.62
68177;DHT22;56478;50.982;7.032;2023-05-21T14:22:21;28.36;49.59
68177;DHT22;56478;50.982;7.032;2023-05-21T14:24:47;28.31;48.10
68177;DHT22;56478;50.982;7.032;2023-05-21T14:27:13;28.29;48.06
68177;DHT22;56478;50.982;7.032;2023-05-21T14:29:38;28.43;47.99
68177;DHT22;56478;50.982;7.032;2023-05-21T14:32:04;28.63;45.78
68177;DHT22;56478;50.982;7.032;2023-05-21T14:34:29;28.57;47.16
68177;DHT22;56478;50.982;7.032;2023-05-21T14:36:55;28.73;47.13
68177;DHT22;56478;50.982;7.032;2023-05-21T14:39:20;28.59;47.61
68177;DHT22;56478;50.982;7.032;2023-05-21T14:41:46;28.52;48.10
68177;DHT22;56478;50.982;7.032;2023-05-21T14:44:11;28.67;46.94
68177;DHT22;56478;50.982;7.032;2023-05-21T14:46:37;28.55;47.70
68177;DHT22;56478;50.982;7.032;2023-05-21T14:49:02;28.22;47.26
68177;DHT22;56478;50.982;7.032;2023-05-21T14:51:27;28.40;46.56
68177;DHT22;56478;50.982;7.032;2023-05-21T14:53:53;28.47;46.36
68177;DHT22;56478;50.982;7.032;2023-05-21T14:56:20;28.55;47.23
68177;DHT22;56478;50.982;7.032;2023-05-21T14:58:47;28.57;46.35
68177;DHT22;56478;50.982;7.032;2023-05-21T15:01:12;28.55;46.77
68177;DHT22;56478;50.982;7.032;2023-05-21T15:03:38;28.47;46.65
68177;DHT22;56478;50.982;7.032;2023-05-21T15:06:03;28.35;47.23
68177;DHT22;56478;50.982;7.032;2023-05-21T15:08:29;28.57;46.40
68177;DHT22;56478;50.982;7.032;2023-05-21T15:10:55;28.74;46.64
68177;DHT22;56478;50.982;7.032;2023-05-21T15:13:20;28.66;46.34
68177;DHT22;56478;50.982;7.032;2023-05-21T15:15:46;28.63;46.47
68177;DHT22;56478;50.982;7.032;2023-05-21T15:18:11;28.64;46.11
68177;DHT22;56478;50.982;7.032;2023-05-21T15:20:36;28.59;46.86
68177;DHT22;56478;50.982;7.032;2023-05-21T15:23:02;28.70;46.24
68177;DHT22;56478;50.982;7.032;2023-05-21T15:25:27;28.70;47.25
68177;DHT22;56478;50.982;7.032;2023-05-21T15:27:53;28.77;46.63
68177;DHT22;56478;50.982;7.032;2023-05-21T15:30:18;28.86;46.27
68177;DHT22;56478;50.982;7.032;2023-05-21T15:32:46;28.67;47.73
68177;DHT22;56478;50.982;7.032;2023-05-21T15:35:12;28.71;46.69
68177;DHT22;56478;50.982;7.032;2023-05-21T15:37:37;28.75;46.32
68177;DHT22;56478;50.982;7.032;2023-05-21T15:40:02;28.66;47.22
68177;DHT22;56478;50.982;7.032;2023-05-21T15:42:28;28.60;47.34
68177;DHT22;56478;50.982;7.032;2023-05-21T15:44:55;28.70;47.18
68177;DHT22;56478;50.982;7.032;2023-05-21T15:47:21;28.77;47.16